sensor_id;sensor_type;location;lat;lon;timestamp;P1;durP1;ratioP1;P2;durP2;ratioP2
8177;SDS011;4130;48.740;9.132;2023-02-28T00:00:35;2.17;;;1.67;;
8177;SDS011;4130;48.740;9.132;2023-02-28T00:03:03;1.90;;;1.70;;
8177;SDS011;4130;48.740;9.132;2023-02-28T00:05:31;1.87;;;1.77;;
8177;SDS011;4130;48.740;9.132;2023-02-28T00:07:58;2.00;;;1.83;;
8177;SDS011;4130;48.740;9.132;2023-02-28T00:10:26;1.70;;;1.60;;
8177;SDS011;4130;48.740;9.132;2023-02-28T00:12:55;4.10;;;2.03;;
8177;SDS011;4130;48.740;9.132;2023-02-28T00:15:25;2.43;;;1.93;;
8177;SDS011;4130;48.740;9.132;2023-02-28T00:17:51;1.70;;;1.60;;
8177;SDS011;4130;48.740;9.132;2023-02-28T00:20:18;2.33;;;1.70;;
8177;SDS011;4130;48.740;9.132;2023-02-28T00:22:48;1.80;;;1.60;;
8177;SDS011;4130;48.740;9.132;2023-02-28T00:25:17;2.47;;;1.70;;
8177;SDS011;4130;48.740;9.132;2023-02-28T00:27:45;2.67;;;1.87;;
8177;SDS011;4130;48.740;9.132;2023-02-28T00:30:13;3.17;;;1.80;;
8177;SDS011;4130;48.740;9.132;2023-02-28T00:32:41;3.90;;;2.10;;
8177;SDS011;4130;48.740;9.132;2023-02-28T00:35:08;3.00;;;2.10;;
8177;SDS011;4130;48.740;9.132;2023-02-28T00:37:36;1.57;;;1.47;;
8177;SDS011;4130;48.740;9.132;2023-02-28T00:40:05;1.57;;;1.47;;
8177;SDS011;4130;48.740;9.132;2023-02-28T00:42:34;3.27;;;1.90;;
8177;SDS011;4130;48.740;9.132;2023-02-28T00:45:01;3.03;;;1.80;;
8177;SDS011;4130;48.740;9.132;2023-02-28T00:47:29;2.23;;;1.63;;
8177;SDS011;4130;48.740;9.132;2023-02-28T00:49:56;2.40;;;2.17;;
8177;SDS011;4130;48.740;9.132;2023-02-28T00:52:23;3.33;;;1.90;;
8177;SDS011;4130;48.740;9.132;2023-02-28T00:54:50;2.70;;;1.90;;
8177;SDS011;4130;48.740;9.132;2023-02-28T00:57:18;3.57;;;1.70;;
8177;SDS011;4130;48.740;9.132;2023-02-28T00:59:45;3.67;;;1.97;;
8177;SDS011;4130;48.740;9.132;2023-02-28T01:02:11;2.57;;;1.77;;
8177;SDS011;4130;48.740;9.132;2023-02-28T01:04:38;1.50;;;1.40;;
8177;SDS011;4130;48.740;9.132;2023-02-28T01:07:05;1.60;;;1.50;;
8177;SDS011;4130;48.740;9.132;2023-02-28T01:09:32;1.80;;;1.70;;
8177;SDS011;4130;48.740;9.132;2023-02-28T01:11:58;3.10;;;2.00;;
8177;SDS011;4130;48.740;9.132;2023-02-28T01:14:27;2.33;;;1.90;;
8177;SDS011;4130;48.740;9.132;2023-02-28T01:16:53;1.93;;;1.73;;
8177;SDS011;4130;48.740;9.132;2023-02-28T01:19:20;1.90;;;1.70;;
8177;SDS011;4130;48.740;9.132;2023-02-28T01:21:47;1.93;;;1.70;;
8177;SDS011;4130;48.740;9.132;2023-02-28T01:24:13;3.03;;;1.90;;
8177;SDS011;4130;48.740;9.132;2023-02-28T01:26:40;4.00;;;2.10;;
8177;SDS011;4130;48.740;9.132;2023-02-28T01:29:07;4.37;;;2.10;;
8177;SDS011;4130;48.740;9.132;2023-02-28T01:31:35;1.97;;;1.77;;
8177;SDS011;4130;48.740;9.132;2023-02-28T01:34:02;1.97;;;1.67;;
8177;SDS011;4130;48.740;9.132;2023-02-28T01:36:29;3.00;;;2.00;;
8177;SDS011;4130;48.740;9.132;2023-02-28T01:38:56;3.20;;;1.80;;
8177;SDS011;4130;48.740;9.132;2023-02-28T01:41:23;1.70;;;1.60;;
8177;SDS011;4130;48.740;9.132;2023-02-28T01:43:54;4.17;;;1.90;;
8177;SDS011;4130;48.740;9.132;2023-02-28T01:46:23;1.97;;;1.70;;
8177;SDS011;4130;48.740;9.132;2023-02-28T01:48:53;2.10;;;1.90;;
8177;SDS011;4130;48.740;9.132;2023-02-28T01:51:24;2.67;;;1.90;;
8177;SDS011;4130;48.740;9.132;2023-02-28T01:53:55;2.53;;;1.87;;
8177;SDS011;4130;48.740;9.132;2023-02-28T01:56:26;2.03;;;1.83;;
8177;SDS011;4130;48.740;9.132;2023-02-28T01:58:56;3.40;;;2.10;;
8177;SDS011;4130;48.740;9.132;2023-02-28T02:01:23;3.13;;;2.10;;
8177;SDS011;4130;48.740;9.132;2023-02-28T02:03:55;2.07;;;1.77;;
8177;SDS011;4130;48.740;9.132;2023-02-28T02:06:25;3.90;;;2.20;;
8177;SDS011;4130;48.740;9.132;2023-02-28T02:08:56;2.57;;;1.93;;
8177;SDS011;4130;48.740;9.132;2023-02-28T02:11:23;3.17;;;2.00;;
8177;SDS011;4130;48.740;9.132;2023-02-28T02:14:01;2.67;;;2.33;;
8177;SDS011;4130;48.740;9.132;2023-02-28T02:16:44;3.23;;;2.13;;
8177;SDS011;4130;48.740;9.132;2023-02-28T02:19:29;2.73;;;1.83;;
8177;SDS011;4130;48.740;9.132;2023-02-28T02:22:30;2.50;;;1.60;;
8177;SDS011;4130;48.740;9.132;2023-02-28T02:25:21;2.03;;;1.90;;
8177;SDS011;4130;48.740;9.132;2023-02-28T02:34:24;1.80;;;1.70;;
8177;SDS011;4130;48.740;9.132;2023-02-28T02:37:01;2.30;;;2.10;;
8177;SDS011;4130;48.740;9.132;2023-02-28T02:39:36;4.13;;;2.10;;
8177;SDS011;4130;48.740;9.132;2023-02-28T02:42:11;2.17;;;1.97;;
8177;SDS011;4130;48.740;9.132;2023-02-28T02:44:45;4.70;;;2.40;;
8177;SDS011;4130;48.740;9.132;2023-02-28T02:47:15;2.40;;;2.20;;
8177;SDS011;4130;48.740;9.132;2023-02-28T02:49:49;2.27;;;2.07;;
8177;SDS011;4130;48.740;9.132;2023-02-28T02:52:18;3.43;;;2.27;;
8177;SDS011;4130;48.740;9.132;2023-02-28T02:54:49;3.37;;;2.13;;
8177;SDS011;4130;48.740;9.132;2023-02-28T02:57:21;2.33;;;2.03;;
8177;SDS011;4130;48.740;9.132;2023-02-28T02:59:50;4.00;;;2.73;;
8177;SDS011;4130;48.740;9.132;2023-02-28T03:02:19;3.63;;;2.20;;
8177;SDS011;4130;48.740;9.132;2023-02-28T03:04:50;2.87;;;2.23;;
8177;SDS011;4130;48.740;9.132;2023-02-28T03:07:19;2.73;;;2.33;;
8177;SDS011;4130;48.740;9.132;2023-02-28T03:09:50;2.37;;;2.17;;
8177;SDS011;4130;48.740;9.132;2023-02-28T03:12:17;2.63;;;2.20;;
8177;SDS011;4130;48.740;9.132;2023-02-28T03:14:48;2.10;;;1.90;;
8177;SDS011;4130;48.740;9.132;2023-02-28T03:17:36;4.80;;;2.37;;
8177;SDS011;4130;48.740;9.132;2023-02-28T03:20:17;3.37;;;2.60;;
8177;SDS011;4130;48.740;9.132;2023-02-28T03:22:55;3.00;;;2.50;;
8177;SDS011;4130;48.740;9.132;2023-02-28T03:25:29;3.20;;;2.73;;
8177;SDS011;4130;48.740;9.132;2023-02-28T03:28:03;2.53;;;2.33;;
8177;SDS011;4130;48.740;9.132;2023-02-28T03:30:36;2.70;;;2.13;;
8177;SDS011;4130;48.740;9.132;2023-02-28T03:33:09;2.90;;;2.60;;
8177;SDS011;4130;48.740;9.132;2023-02-28T03:35:40;2.33;;;2.13;;
8177;SDS011;4130;48.740;9.132;2023-02-28T03:38:13;3.33;;;2.57;;
8177;SDS011;4130;48.740;9.132;2023-02-28T03:40:44;3.57;;;2.50;;
8177;SDS011;4130;48.740;9.132;2023-02-28T03:43:17;4.13;;;2.63;;
8177;SDS011;4130;48.740;9.132;2023-02-28T03:45:47;3.00;;;2.40;;
8177;SDS011;4130;48.740;9.132;2023-02-28T03:48:17;3.17;;;2.40;;
8177;SDS011;4130;48.740;9.132;2023-02-28T03:50:49;5.10;;;2.63;;
8177;SDS011;4130;48.740;9.132;2023-02-28T03:53:20;3.93;;;2.60;;
8177;SDS011;4130;48.740;9.132;2023-02-28T03:55:52;4.40;;;2.40;;
8177;SDS011;4130;48.740;9.132;2023-02-28T03:58:24;3.40;;;2.23;;
8177;SDS011;4130;48.740;9.132;2023-02-28T04:00:57;2.87;;;2.07;;
8177;SDS011;4130;48.740;9.132;2023-02-28T04:03:33;3.23;;;2.37;;
8177;SDS011;4130;48.740;9.132;2023-02-28T04:06:02;3.43;;;2.60;;
8177;SDS011;4130;48.740;9.132;2023-02-28T04:08:32;2.70;;;2.50;;
8177;SDS011;4130;48.740;9.132;2023-02-28T04:11:00;5.50;;;2.37;;
8177;SDS011;4130;48.740;9.132;2023-02-28T04:13:30;5.20;;;2.73;;
8177;SDS011;4130;48.740;9.132;2023-02-28T04:15:57;3.77;;;2.50;;
8177;SDS011;4130;48.740;9.132;2023-02-28T04:18:24;2.33;;;2.13;;
8177;SDS011;4130;48.740;9.132;2023-02-28T04:20:51;3.27;;;2.53;;
8177;SDS011;4130;48.740;9.132;2023-02-28T04:23:19;2.60;;;2.40;;
8177;SDS011;4130;48.740;9.132;2023-02-28T04:25:45;4.53;;;2.90;;
8177;SDS011;4130;48.740;9.132;2023-02-28T04:28:12;2.23;;;2.10;;
8177;SDS011;4130;48.740;9.132;2023-02-28T04:30:39;3.97;;;2.70;;
8177;SDS011;4130;48.740;9.132;2023-02-28T04:33:06;5.33;;;3.03;;
8177;SDS011;4130;48.740;9.132;2023-02-28T04:35:32;4.20;;;3.03;;
8177;SDS011;4130;48.740;9.132;2023-02-28T04:37:59;3.50;;;2.73;;
8177;SDS011;4130;48.740;9.132;2023-02-28T04:40:27;3.20;;;2.60;;
8177;SDS011;4130;48.740;9.132;2023-02-28T04:42:54;2.30;;;2.10;;
8177;SDS011;4130;48.740;9.132;2023-02-28T04:45:20;5.27;;;2.83;;
8177;SDS011;4130;48.740;9.132;2023-02-28T04:47:47;2.73;;;2.53;;
8177;SDS011;4130;48.740;9.132;2023-02-28T04:50:14;4.40;;;2.97;;
8177;SDS011;4130;48.740;9.132;2023-02-28T04:52:41;3.10;;;2.80;;
8177;SDS011;4130;48.740;9.132;2023-02-28T04:55:08;5.50;;;3.50;;
8177;SDS011;4130;48.740;9.132;2023-02-28T04:57:36;3.80;;;2.60;;
8177;SDS011;4130;48.740;9.132;2023-02-28T05:00:03;3.17;;;2.57;;
8177;SDS011;4130;48.740;9.132;2023-02-28T05:02:36;6.77;;;2.87;;
8177;SDS011;4130;48.740;9.132;2023-02-28T05:05:03;3.20;;;2.77;;
8177;SDS011;4130;48.740;9.132;2023-02-28T05:07:30;3.90;;;2.47;;
8177;SDS011;4130;48.740;9.132;2023-02-28T05:09:57;6.17;;;3.00;;
8177;SDS011;4130;48.740;9.132;2023-02-28T05:12:24;4.20;;;2.60;;
8177;SDS011;4130;48.740;9.132;2023-02-28T05:14:52;4.10;;;3.03;;
8177;SDS011;4130;48.740;9.132;2023-02-28T05:17:19;5.43;;;2.33;;
8177;SDS011;4130;48.740;9.132;2023-02-28T05:19:46;3.63;;;2.97;;
8177;SDS011;4130;48.740;9.132;2023-02-28T05:22:13;3.50;;;2.70;;
8177;SDS011;4130;48.740;9.132;2023-02-28T05:24:41;5.07;;;2.90;;
8177;SDS011;4130;48.740;9.132;2023-02-28T05:27:08;3.90;;;2.90;;
8177;SDS011;4130;48.740;9.132;2023-02-28T05:29:35;4.87;;;3.17;;
8177;SDS011;4130;48.740;9.132;2023-02-28T05:32:08;3.80;;;2.87;;
8177;SDS011;4130;48.740;9.132;2023-02-28T05:34:36;3.90;;;2.97;;
8177;SDS011;4130;48.740;9.132;2023-02-28T05:37:03;4.23;;;2.90;;
8177;SDS011;4130;48.740;9.132;2023-02-28T05:39:30;3.10;;;2.77;;
8177;SDS011;4130;48.740;9.132;2023-02-28T05:41:56;3.67;;;2.97;;
8177;SDS011;4130;48.740;9.132;2023-02-28T05:44:23;2.70;;;2.43;;
8177;SDS011;4130;48.740;9.132;2023-02-28T05:46:50;4.03;;;2.70;;
8177;SDS011;4130;48.740;9.132;2023-02-28T05:49:18;3.23;;;2.60;;
8177;SDS011;4130;48.740;9.132;2023-02-28T05:51:45;3.30;;;2.80;;
8177;SDS011;4130;48.740;9.132;2023-02-28T05:54:12;4.27;;;3.43;;
8177;SDS011;4130;48.740;9.132;2023-02-28T05:56:38;4.70;;;2.97;;
8177;SDS011;4130;48.740;9.132;2023-02-28T05:59:08;3.63;;;3.00;;
8177;SDS011;4130;48.740;9.132;2023-02-28T06:01:36;4.67;;;3.23;;
8177;SDS011;4130;48.740;9.132;2023-02-28T06:04:04;4.17;;;3.00;;
8177;SDS011;4130;48.740;9.132;2023-02-28T06:06:34;3.03;;;2.57;;
8177;SDS011;4130;48.740;9.132;2023-02-28T06:09:02;3.63;;;3.33;;
8177;SDS011;4130;48.740;9.132;2023-02-28T06:11:29;4.77;;;3.30;;
8177;SDS011;4130;48.740;9.132;2023-02-28T06:13:56;5.40;;;3.30;;
8177;SDS011;4130;48.740;9.132;2023-02-28T06:16:24;4.73;;;3.70;;
8177;SDS011;4130;48.740;9.132;2023-02-28T06:18:52;4.47;;;3.50;;
8177;SDS011;4130;48.740;9.132;2023-02-28T06:21:20;4.10;;;3.17;;
8177;SDS011;4130;48.740;9.132;2023-02-28T06:23:48;4.00;;;3.17;;
8177;SDS011;4130;48.740;9.132;2023-02-28T06:26:15;3.93;;;2.87;;
8177;SDS011;4130;48.740;9.132;2023-02-28T06:28:42;4.70;;;3.30;;
8177;SDS011;4130;48.740;9.132;2023-02-28T06:31:09;5.00;;;2.80;;
8177;SDS011;4130;48.740;9.132;2023-02-28T06:33:38;4.87;;;3.90;;
8177;SDS011;4130;48.740;9.132;2023-02-28T06:36:06;4.53;;;3.83;;
8177;SDS011;4130;48.740;9.132;2023-02-28T06:38:33;5.50;;;3.70;;
8177;SDS011;4130;48.740;9.132;2023-02-28T06:41:02;4.97;;;3.83;;
8177;SDS011;4130;48.740;9.132;2023-02-28T06:43:32;5.37;;;3.40;;
8177;SDS011;4130;48.740;9.132;2023-02-28T06:46:01;4.20;;;3.40;;
8177;SDS011;4130;48.740;9.132;2023-02-28T06:48:29;4.33;;;3.40;;
8177;SDS011;4130;48.740;9.132;2023-02-28T06:51:01;4.30;;;3.43;;
8177;SDS011;4130;48.740;9.132;2023-02-28T06:53:28;7.10;;;3.93;;
8177;SDS011;4130;48.740;9.132;2023-02-28T06:55:55;5.47;;;4.07;;
8177;SDS011;4130;48.740;9.132;2023-02-28T06:58:23;5.93;;;3.90;;
8177;SDS011;4130;48.740;9.132;2023-02-28T07:00:51;4.53;;;3.30;;
8177;SDS011;4130;48.740;9.132;2023-02-28T07:03:18;5.67;;;3.83;;
8177;SDS011;4130;48.740;9.132;2023-02-28T07:05:45;3.73;;;3.37;;
8177;SDS011;4130;48.740;9.132;2023-02-28T07:08:12;5.40;;;3.30;;
8177;SDS011;4130;48.740;9.132;2023-02-28T07:10:39;5.70;;;3.60;;
8177;SDS011;4130;48.740;9.132;2023-02-28T07:13:06;5.60;;;3.70;;
8177;SDS011;4130;48.740;9.132;2023-02-28T07:15:35;6.00;;;3.70;;
8177;SDS011;4130;48.740;9.132;2023-02-28T07:18:02;5.23;;;3.97;;
8177;SDS011;4130;48.740;9.132;2023-02-28T07:20:29;4.13;;;3.33;;
8177;SDS011;4130;48.740;9.132;2023-02-28T07:22:57;5.77;;;3.90;;
8177;SDS011;4130;48.740;9.132;2023-02-28T07:25:24;4.37;;;3.33;;
8177;SDS011;4130;48.740;9.132;2023-02-28T07:27:52;5.53;;;3.70;;
8177;SDS011;4130;48.740;9.132;2023-02-28T07:30:19;5.23;;;4.07;;
8177;SDS011;4130;48.740;9.132;2023-02-28T07:32:48;5.23;;;3.50;;
8177;SDS011;4130;48.740;9.132;2023-02-28T07:35:14;4.97;;;3.77;;
8177;SDS011;4130;48.740;9.132;2023-02-28T07:37:41;5.90;;;3.80;;
8177;SDS011;4130;48.740;9.132;2023-02-28T07:40:09;4.40;;;3.80;;
8177;SDS011;4130;48.740;9.132;2023-02-28T07:42:38;4.93;;;3.73;;
8177;SDS011;4130;48.740;9.132;2023-02-28T07:45:05;5.00;;;3.90;;
8177;SDS011;4130;48.740;9.132;2023-02-28T07:47:36;8.30;;;4.33;;
8177;SDS011;4130;48.740;9.132;2023-02-28T07:50:04;10.67;;;4.23;;
8177;SDS011;4130;48.740;9.132;2023-02-28T07:52:32;5.13;;;4.13;;
8177;SDS011;4130;48.740;9.132;2023-02-28T07:54:59;5.87;;;4.27;;
8177;SDS011;4130;48.740;9.132;2023-02-28T07:57:25;4.70;;;3.83;;
8177;SDS011;4130;48.740;9.132;2023-02-28T07:59:52;6.60;;;4.13;;
8177;SDS011;4130;48.740;9.132;2023-02-28T08:02:19;5.47;;;4.43;;
8177;SDS011;4130;48.740;9.132;2023-02-28T08:04:46;4.93;;;3.90;;
8177;SDS011;4130;48.740;9.132;2023-02-28T08:07:15;6.63;;;4.37;;
8177;SDS011;4130;48.740;9.132;2023-02-28T08:09:42;8.37;;;4.20;;
8177;SDS011;4130;48.740;9.132;2023-02-28T08:12:11;8.97;;;4.33;;
8177;SDS011;4130;48.740;9.132;2023-02-28T08:14:37;7.23;;;4.43;;
8177;SDS011;4130;48.740;9.132;2023-02-28T08:17:05;6.00;;;4.10;;
8177;SDS011;4130;48.740;9.132;2023-02-28T08:19:32;5.07;;;3.43;;
8177;SDS011;4130;48.740;9.132;2023-02-28T08:21:59;7.00;;;4.20;;
8177;SDS011;4130;48.740;9.132;2023-02-28T08:24:27;7.10;;;4.40;;
8177;SDS011;4130;48.740;9.132;2023-02-28T08:26:54;5.73;;;3.97;;
8177;SDS011;4130;48.740;9.132;2023-02-28T08:29:21;5.20;;;4.03;;
8177;SDS011;4130;48.740;9.132;2023-02-28T08:31:48;7.53;;;3.93;;
8177;SDS011;4130;48.740;9.132;2023-02-28T08:34:15;5.20;;;3.80;;
8177;SDS011;4130;48.740;9.132;2023-02-28T08:36:43;6.23;;;4.40;;
8177;SDS011;4130;48.740;9.132;2023-02-28T08:39:11;7.07;;;4.63;;
8177;SDS011;4130;48.740;9.132;2023-02-28T08:41:39;6.33;;;3.90;;
8177;SDS011;4130;48.740;9.132;2023-02-28T08:44:06;6.50;;;4.50;;
8177;SDS011;4130;48.740;9.132;2023-02-28T08:46:33;8.47;;;4.27;;
8177;SDS011;4130;48.740;9.132;2023-02-28T08:48:59;4.87;;;4.03;;
8177;SDS011;4130;48.740;9.132;2023-02-28T08:51:27;6.17;;;4.47;;
8177;SDS011;4130;48.740;9.132;2023-02-28T08:53:55;5.00;;;4.00;;
8177;SDS011;4130;48.740;9.132;2023-02-28T08:56:24;7.03;;;4.13;;
8177;SDS011;4130;48.740;9.132;2023-02-28T08:58:53;6.27;;;4.37;;
8177;SDS011;4130;48.740;9.132;2023-02-28T09:01:22;4.80;;;3.90;;
8177;SDS011;4130;48.740;9.132;2023-02-28T09:03:50;7.60;;;4.50;;
8177;SDS011;4130;48.740;9.132;2023-02-28T09:06:18;6.03;;;4.37;;
8177;SDS011;4130;48.740;9.132;2023-02-28T09:08:47;5.80;;;4.23;;
8177;SDS011;4130;48.740;9.132;2023-02-28T09:11:14;4.57;;;3.73;;
8177;SDS011;4130;48.740;9.132;2023-02-28T09:13:41;5.73;;;4.40;;
8177;SDS011;4130;48.740;9.132;2023-02-28T09:16:10;7.07;;;4.57;;
8177;SDS011;4130;48.740;9.132;2023-02-28T09:18:39;5.07;;;3.90;;
8177;SDS011;4130;48.740;9.132;2023-02-28T09:21:06;8.43;;;4.77;;
8177;SDS011;4130;48.740;9.132;2023-02-28T09:23:35;7.63;;;5.00;;
8177;SDS011;4130;48.740;9.132;2023-02-28T09:26:03;7.70;;;4.90;;
8177;SDS011;4130;48.740;9.132;2023-02-28T09:28:30;6.10;;;4.50;;
8177;SDS011;4130;48.740;9.132;2023-02-28T09:30:57;7.97;;;5.00;;
8177;SDS011;4130;48.740;9.132;2023-02-28T09:33:26;7.73;;;4.97;;
8177;SDS011;4130;48.740;9.132;2023-02-28T09:35:57;5.93;;;4.47;;
8177;SDS011;4130;48.740;9.132;2023-02-28T09:38:25;5.40;;;4.60;;
8177;SDS011;4130;48.740;9.132;2023-02-28T09:40:53;6.17;;;4.07;;
8177;SDS011;4130;48.740;9.132;2023-02-28T09:43:23;7.73;;;3.70;;
8177;SDS011;4130;48.740;9.132;2023-02-28T09:45:55;7.13;;;4.47;;
8177;SDS011;4130;48.740;9.132;2023-02-28T09:48:29;9.83;;;5.17;;
8177;SDS011;4130;48.740;9.132;2023-02-28T09:51:02;9.17;;;5.07;;
8177;SDS011;4130;48.740;9.132;2023-02-28T09:53:32;8.00;;;4.50;;
8177;SDS011;4130;48.740;9.132;2023-02-28T09:56:01;6.40;;;4.93;;
8177;SDS011;4130;48.740;9.132;2023-02-28T09:58:32;7.63;;;4.50;;
8177;SDS011;4130;48.740;9.132;2023-02-28T10:01:03;4.83;;;4.23;;
8177;SDS011;4130;48.740;9.132;2023-02-28T10:03:37;6.60;;;4.67;;
8177;SDS011;4130;48.740;9.132;2023-02-28T10:06:07;6.93;;;4.47;;
8177;SDS011;4130;48.740;9.132;2023-02-28T10:08:39;5.43;;;4.40;;
8177;SDS011;4130;48.740;9.132;2023-02-28T10:11:11;6.67;;;4.20;;
8177;SDS011;4130;48.740;9.132;2023-02-28T10:13:45;5.87;;;4.50;;
8177;SDS011;4130;48.740;9.132;2023-02-28T10:16:19;5.10;;;4.27;;
8177;SDS011;4130;48.740;9.132;2023-02-28T10:18:52;6.20;;;4.07;;
8177;SDS011;4130;48.740;9.132;2023-02-28T10:21:26;7.10;;;4.30;;
8177;SDS011;4130;48.740;9.132;2023-02-28T10:23:59;6.67;;;4.83;;
8177;SDS011;4130;48.740;9.132;2023-02-28T10:26:30;7.50;;;4.83;;
8177;SDS011;4130;48.740;9.132;2023-02-28T10:28:58;6.90;;;4.27;;
8177;SDS011;4130;48.740;9.132;2023-02-28T10:31:25;5.93;;;4.37;;
8177;SDS011;4130;48.740;9.132;2023-02-28T10:33:53;7.93;;;4.53;;
8177;SDS011;4130;48.740;9.132;2023-02-28T10:36:21;7.97;;;4.60;;
8177;SDS011;4130;48.740;9.132;2023-02-28T10:38:48;7.03;;;4.63;;
8177;SDS011;4130;48.740;9.132;2023-02-28T10:41:15;6.23;;;4.43;;
8177;SDS011;4130;48.740;9.132;2023-02-28T10:43:52;6.30;;;4.70;;
8177;SDS011;4130;48.740;9.132;2023-02-28T10:46:37;6.97;;;4.60;;
8177;SDS011;4130;48.740;9.132;2023-02-28T10:49:11;6.87;;;4.57;;
8177;SDS011;4130;48.740;9.132;2023-02-28T10:51:40;6.17;;;4.43;;
8177;SDS011;4130;48.740;9.132;2023-02-28T10:54:14;7.83;;;4.80;;
8177;SDS011;4130;48.740;9.132;2023-02-28T10:56:43;6.33;;;4.40;;
8177;SDS011;4130;48.740;9.132;2023-02-28T10:59:22;7.27;;;4.80;;
8177;SDS011;4130;48.740;9.132;2023-02-28T11:01:53;8.17;;;4.90;;
8177;SDS011;4130;48.740;9.132;2023-02-28T11:04:32;8.27;;;5.87;;
8177;SDS011;4130;48.740;9.132;2023-02-28T11:07:03;6.97;;;4.77;;
8177;SDS011;4130;48.740;9.132;2023-02-28T11:09:33;6.33;;;5.00;;
8177;SDS011;4130;48.740;9.132;2023-02-28T11:12:01;5.07;;;4.40;;
8177;SDS011;4130;48.740;9.132;2023-02-28T11:14:31;6.50;;;5.40;;
8177;SDS011;4130;48.740;9.132;2023-02-28T11:17:03;6.23;;;4.67;;
8177;SDS011;4130;48.740;9.132;2023-02-28T11:19:44;6.53;;;4.67;;
8177;SDS011;4130;48.740;9.132;2023-02-28T11:22:15;7.30;;;4.50;;
8177;SDS011;4130;48.740;9.132;2023-02-28T11:24:47;6.73;;;4.50;;
8177;SDS011;4130;48.740;9.132;2023-02-28T11:30:23;6.77;;;4.27;;
8177;SDS011;4130;48.740;9.132;2023-02-28T11:32:52;7.03;;;4.73;;
8177;SDS011;4130;48.740;9.132;2023-02-28T11:35:21;6.53;;;4.63;;
8177;SDS011;4130;48.740;9.132;2023-02-28T11:37:52;8.00;;;4.60;;
8177;SDS011;4130;48.740;9.132;2023-02-28T11:40:21;6.37;;;4.73;;
8177;SDS011;4130;48.740;9.132;2023-02-28T11:42:56;7.47;;;4.83;;
8177;SDS011;4130;48.740;9.132;2023-02-28T11:45:36;6.90;;;4.83;;
8177;SDS011;4130;48.740;9.132;2023-02-28T11:48:12;6.83;;;5.27;;
8177;SDS011;4130;48.740;9.132;2023-02-28T11:50:47;6.70;;;5.07;;
8177;SDS011;4130;48.740;9.132;2023-02-28T11:53:22;8.07;;;4.67;;
8177;SDS011;4130;48.740;9.132;2023-02-28T11:56:02;6.53;;;4.97;;
8177;SDS011;4130;48.740;9.132;2023-02-28T11:58:38;6.60;;;4.60;;
8177;SDS011;4130;48.740;9.132;2023-02-28T12:01:16;7.13;;;4.97;;
8177;SDS011;4130;48.740;9.132;2023-02-28T12:04:03;7.13;;;5.03;;
8177;SDS011;4130;48.740;9.132;2023-02-28T12:06:40;5.90;;;4.77;;
8177;SDS011;4130;48.740;9.132;2023-02-28T12:09:20;6.53;;;4.77;;
8177;SDS011;4130;48.740;9.132;2023-02-28T12:12:07;9.10;;;5.00;;
8177;SDS011;4130;48.740;9.132;2023-02-28T12:14:53;6.50;;;5.13;;
8177;SDS011;4130;48.740;9.132;2023-02-28T12:17:47;7.53;;;5.23;;
8177;SDS011;4130;48.740;9.132;2023-02-28T12:20:25;7.00;;;5.03;;
8177;SDS011;4130;48.740;9.132;2023-02-28T12:23:04;7.23;;;4.80;;
8177;SDS011;4130;48.740;9.132;2023-02-28T12:25:52;6.13;;;4.73;;
8177;SDS011;4130;48.740;9.132;2023-02-28T12:28:27;6.77;;;4.80;;
8177;SDS011;4130;48.740;9.132;2023-02-28T12:30:59;5.70;;;4.50;;
8177;SDS011;4130;48.740;9.132;2023-02-28T12:33:31;7.53;;;4.90;;
8177;SDS011;4130;48.740;9.132;2023-02-28T12:36:03;5.47;;;4.50;;
8177;SDS011;4130;48.740;9.132;2023-02-28T12:38:37;5.97;;;4.73;;
8177;SDS011;4130;48.740;9.132;2023-02-28T12:41:10;6.43;;;4.63;;
8177;SDS011;4130;48.740;9.132;2023-02-28T12:43:42;7.77;;;5.17;;
8177;SDS011;4130;48.740;9.132;2023-02-28T12:46:14;5.93;;;4.27;;
8177;SDS011;4130;48.740;9.132;2023-02-28T12:48:44;4.97;;;4.30;;
8177;SDS011;4130;48.740;9.132;2023-02-28T12:51:15;6.67;;;4.50;;
8177;SDS011;4130;48.740;9.132;2023-02-28T12:53:49;6.70;;;4.73;;
8177;SDS011;4130;48.740;9.132;2023-02-28T12:56:30;5.63;;;4.40;;
8177;SDS011;4130;48.740;9.132;2023-02-28T12:59:07;8.23;;;5.73;;
8177;SDS011;4130;48.740;9.132;2023-02-28T13:01:42;5.47;;;4.67;;
8177;SDS011;4130;48.740;9.132;2023-02-28T13:07:29;9.70;;;4.77;;
8177;SDS011;4130;48.740;9.132;2023-02-28T13:10:13;6.00;;;4.87;;
8177;SDS011;4130;48.740;9.132;2023-02-28T13:12:47;5.80;;;4.63;;
8177;SDS011;4130;48.740;9.132;2023-02-28T13:15:16;7.50;;;5.00;;
8177;SDS011;4130;48.740;9.132;2023-02-28T13:17:48;5.70;;;4.50;;
8177;SDS011;4130;48.740;9.132;2023-02-28T13:20:17;7.00;;;4.63;;
8177;SDS011;4130;48.740;9.132;2023-02-28T13:22:46;5.63;;;5.00;;
8177;SDS011;4130;48.740;9.132;2023-02-28T13:34:35;7.20;;;4.80;;
8177;SDS011;4130;48.740;9.132;2023-02-28T13:43:01;9.37;;;5.50;;
8177;SDS011;4130;48.740;9.132;2023-02-28T13:45:28;7.63;;;4.70;;
8177;SDS011;4130;48.740;9.132;2023-02-28T13:48:02;7.90;;;5.97;;
8177;SDS011;4130;48.740;9.132;2023-02-28T13:50:35;6.83;;;5.10;;
8177;SDS011;4130;48.740;9.132;2023-02-28T13:53:25;7.80;;;5.17;;
8177;SDS011;4130;48.740;9.132;2023-02-28T13:56:31;7.40;;;5.00;;
8177;SDS011;4130;48.740;9.132;2023-02-28T13:59:13;6.63;;;4.80;;
8177;SDS011;4130;48.740;9.132;2023-02-28T14:01:54;6.23;;;4.70;;
8177;SDS011;4130;48.740;9.132;2023-02-28T14:07:26;6.70;;;4.97;;
8177;SDS011;4130;48.740;9.132;2023-02-28T14:09:57;5.73;;;4.80;;
8177;SDS011;4130;48.740;9.132;2023-02-28T14:15:28;6.77;;;4.97;;
8177;SDS011;4130;48.740;9.132;2023-02-28T14:18:11;7.00;;;4.97;;
8177;SDS011;4130;48.740;9.132;2023-02-28T14:20:57;7.37;;;5.00;;
8177;SDS011;4130;48.740;9.132;2023-02-28T14:23:34;6.47;;;4.93;;
8177;SDS011;4130;48.740;9.132;2023-02-28T14:26:11;8.13;;;4.93;;
8177;SDS011;4130;48.740;9.132;2023-02-28T14:28:50;6.83;;;4.83;;
8177;SDS011;4130;48.740;9.132;2023-02-28T14:31:36;6.60;;;4.83;;
8177;SDS011;4130;48.740;9.132;2023-02-28T14:34:14;6.63;;;5.03;;
8177;SDS011;4130;48.740;9.132;2023-02-28T14:36:50;10.10;;;5.20;;
8177;SDS011;4130;48.740;9.132;2023-02-28T14:39:21;5.33;;;4.30;;
8177;SDS011;4130;48.740;9.132;2023-02-28T14:41:49;5.87;;;4.70;;
8177;SDS011;4130;48.740;9.132;2023-02-28T14:44:17;11.77;;;4.93;;
8177;SDS011;4130;48.740;9.132;2023-02-28T14:46:46;6.13;;;4.87;;
8177;SDS011;4130;48.740;9.132;2023-02-28T14:49:27;6.37;;;4.30;;
8177;SDS011;4130;48.740;9.132;2023-02-28T14:52:02;7.57;;;4.87;;
8177;SDS011;4130;48.740;9.132;2023-02-28T14:54:36;7.20;;;5.30;;
8177;SDS011;4130;48.740;9.132;2023-02-28T14:57:04;8.20;;;5.60;;
8177;SDS011;4130;48.740;9.132;2023-02-28T14:59:31;6.13;;;4.53;;
8177;SDS011;4130;48.740;9.132;2023-02-28T15:02:19;5.53;;;4.70;;
8177;SDS011;4130;48.740;9.132;2023-02-28T15:04:56;7.00;;;5.00;;
8177;SDS011;4130;48.740;9.132;2023-02-28T15:07:24;6.33;;;5.10;;
8177;SDS011;4130;48.740;9.132;2023-02-28T15:12:48;5.90;;;4.60;;
8177;SDS011;4130;48.740;9.132;2023-02-28T15:15:18;7.53;;;5.03;;
8177;SDS011;4130;48.740;9.132;2023-02-28T15:17:48;6.20;;;5.13;;
8177;SDS011;4130;48.740;9.132;2023-02-28T15:20:16;7.60;;;4.80;;
8177;SDS011;4130;48.740;9.132;2023-02-28T15:22:44;8.93;;;5.87;;
8177;SDS011;4130;48.740;9.132;2023-02-28T15:25:14;8.00;;;4.80;;
8177;SDS011;4130;48.740;9.132;2023-02-28T15:27:46;6.07;;;4.73;;
8177;SDS011;4130;48.740;9.132;2023-02-28T15:30:16;5.37;;;4.40;;
8177;SDS011;4130;48.740;9.132;2023-02-28T15:33:01;9.03;;;4.70;;
8177;SDS011;4130;48.740;9.132;2023-02-28T15:35:43;5.83;;;4.37;;
8177;SDS011;4130;48.740;9.132;2023-02-28T15:38:14;5.83;;;4.50;;
8177;SDS011;4130;48.740;9.132;2023-02-28T15:40:50;5.20;;;4.03;;
8177;SDS011;4130;48.740;9.132;2023-02-28T15:43:25;5.40;;;4.00;;
8177;SDS011;4130;48.740;9.132;2023-02-28T15:45:54;6.60;;;5.03;;
8177;SDS011;4130;48.740;9.132;2023-02-28T15:48:24;5.90;;;4.50;;
8177;SDS011;4130;48.740;9.132;2023-02-28T15:50:54;6.90;;;4.47;;
8177;SDS011;4130;48.740;9.132;2023-02-28T15:53:24;5.73;;;4.47;;
8177;SDS011;4130;48.740;9.132;2023-02-28T15:56:00;11.30;;;4.43;;
8177;SDS011;4130;48.740;9.132;2023-02-28T15:58:29;6.40;;;4.27;;
8177;SDS011;4130;48.740;9.132;2023-02-28T16:01:00;6.33;;;4.73;;
8177;SDS011;4130;48.740;9.132;2023-02-28T16:03:38;7.03;;;5.00;;
8177;SDS011;4130;48.740;9.132;2023-02-28T16:06:19;7.20;;;4.70;;
8177;SDS011;4130;48.740;9.132;2023-02-28T16:08:59;6.30;;;4.67;;
8177;SDS011;4130;48.740;9.132;2023-02-28T16:11:27;6.00;;;4.93;;
8177;SDS011;4130;48.740;9.132;2023-02-28T16:13:55;8.73;;;5.37;;